KVBT Airport (Bentonville Muni/Louise M Thaden Field) Information

FAA: VBT - ICAO: KVBT

KVBT Airport Location

State Arkansas
County Benton
City Bentonville
KVBT Airport is 2 miles south of Bentonville, AR.
Latitude 36-20-42.9000N
Longitude 094-13-09.6100W
Elevation 1,298ft

KVBT Airport METARs

METAR KVBT 302056Z AUTO 07008KT 10SM CLR 24/00 A3009 RMK AO2 SLP187 T02390000 56030
Altimeter 30.09"
Temperature 23.9°C (75.0°F)
Wind 70° at 8KT
Clouds Skies are clear.
Visibility 10.0mi
Time observed: 2022-09-30T20:56:00Z

KVBT Airport Details

Status Operational
Activation September 1946
Ownership Public
Usage Public
Chart KANSAS CITY
ATC on-site No
Beacon schedule sunset-sunrise
Beacon color clear green

KVBT Airport Contacts

Owner CITY OF BENTONVILLE
Owner address 117 WEST CENTRAL, BENTONVILLE, AR 72712
Owner phone 479-271-3112
Manager DANE PRUITT
Manager address 1100 HILL FARM ROAD, BRYANT, AR 72022
Manager phone (501) 672-9809

KVBT Airport (Bentonville Muni/Louise M Thaden Field) Radio Frequencies

KVBT (Airport) Radio Frequencies

UNICOM 122.8
Common traffic advisory frequency (CTAF) 122.8